Time;durP1;ratioP1;P1;durP2;ratioP2;P2;SDS_P1;SDS_P2;PMS_P1;PMS_P2;Temp;Humidity;BMP_temperature;BMP_pressure;BME280_temperature;BME280_humidity;BME280_pressure;Samples;Min_cycle;Max_cycle;Signal;HPM_P1;HPM_P2
2023/04/14 00:01:55;;;;;;;8.63;6.20;;;6.50;99.90;;;5.93;73.06;100317.84;5093172;28;20189;-74
2023/04/14 00:04:27;;;;;;;8.17;5.93;;;6.60;99.90;;;5.91;72.72;100319.81;5093446;28;20189;-74
2023/04/14 00:06:59;;;;;;;6.73;5.67;;;6.60;99.70;;;6.00;72.35;100329.59;5093355;28;20228;-74
2023/04/14 00:09:31;;;;;;;6.23;5.63;;;6.60;99.70;;;6.03;72.06;100331.94;5093115;28;20197;-74
2023/04/14 00:12:03;;;;;;;6.13;5.23;;;6.60;99.50;;;5.91;71.76;100336.59;5093368;28;20185;-74
2023/04/14 00:14:36;;;;;;;7.17;5.60;;;6.60;99.20;;;5.91;71.56;100338.41;5093355;28;20262;-74
2023/04/14 00:17:08;;;;;;;7.03;5.93;;;6.60;99.40;;;5.86;71.86;100346.78;5093287;28;20248;-74
2023/04/14 00:19:40;;;;;;;8.20;6.10;;;6.50;99.20;;;5.75;72.52;100338.09;5093363;28;20189;-74
2023/04/14 00:22:12;;;;;;;6.90;5.73;;;6.40;99.50;;;5.70;72.63;100342.97;5093151;28;20641;-74
2023/04/14 00:24:43;;;;;;;6.83;5.80;;;6.30;99.60;;;5.54;72.93;100349.69;5093450;28;20193;-74
2023/04/14 00:27:15;;;;;;;7.63;5.97;;;6.20;99.90;;;5.46;73.58;100352.19;5092861;28;20736;-74
2023/04/14 00:29:49;;;;;;;8.10;6.50;;;6.10;99.90;;;5.48;74.42;100360.84;5093220;28;20189;-74
2023/04/14 00:32:22;;;;;;;7.70;6.20;;;6.00;99.90;;;5.47;73.46;100353.88;5092987;28;20554;-74
2023/04/14 00:34:55;;;;;;;7.87;5.90;;;6.10;99.90;;;5.38;73.84;100354.66;5093274;28;20189;-74
2023/04/14 00:37:27;;;;;;;9.80;6.50;;;6.00;99.90;;;5.35;74.66;100348.78;5092935;28;20645;-76
2023/04/14 00:39:59;;;;;;;10.70;6.53;;;5.90;99.90;;;5.33;74.12;100359.56;5093110;28;20193;-75
2023/04/14 00:42:31;;;;;;;7.87;6.03;;;5.90;99.90;;;5.24;74.05;100363.00;5093249;28;20186;-74
2023/04/14 00:45:04;;;;;;;6.90;5.50;;;5.80;99.90;;;5.25;73.81;100362.03;5093741;28;20268;-74
2023/04/14 00:47:40;;;;;;;8.20;5.57;;;5.80;99.90;;;5.27;74.26;100361.91;5093114;28;20294;-74
2023/04/14 00:50:14;;;;;;;6.30;5.70;;;5.90;99.90;;;5.22;73.75;100359.66;5092830;28;20220;-74
2023/04/14 00:52:49;;;;;;;7.17;6.13;;;5.90;99.90;;;5.17;73.89;100364.56;5093127;28;20193;-74
2023/04/14 00:55:22;;;;;;;8.53;6.43;;;5.80;99.90;;;5.09;75.04;100367.88;5093105;28;20292;-74
2023/04/14 00:57:56;;;;;;;8.33;6.33;;;5.70;99.90;;;5.27;75.45;100364.56;5092748;28;20233;-74
2023/04/14 01:00:30;;;;;;;8.00;6.60;;;5.90;99.90;;;5.32;75.25;100363.19;5092960;28;20214;-74
2023/04/14 01:03:02;;;;;;;7.60;6.17;;;6.00;99.90;;;5.36;74.55;100361.09;5093010;28;20193;-74
2023/04/14 01:05:34;;;;;;;6.90;5.63;;;6.10;99.90;;;5.51;74.13;100365.88;5092947;28;20189;-74
2023/04/14 01:08:07;;;;;;;7.63;5.90;;;6.20;99.90;;;5.56;74.02;100358.34;5092794;28;20233;-74
2023/04/14 01:10:47;;;;;;;6.33;5.63;;;6.20;99.90;;;5.39;73.03;100361.66;5095987;28;20219;-74
2023/04/14 01:13:35;;;;;;;10.73;6.67;;;6.10;99.60;;;5.14;74.27;100353.38;5096496;28;20189;-74
2023/04/14 01:16:14;;;;;;;6.93;6.17;;;5.80;99.90;;;5.07;74.13;100355.69;5096432;28;20196;-74
2023/04/14 01:18:58;;;;;;;7.37;6.57;;;5.70;99.90;;;5.08;74.23;100354.72;5096014;28;20602;-74
2023/04/14 01:21:38;;;;;;;9.67;6.13;;;5.70;99.90;;;5.07;74.23;100351.22;5096045;28;20673;-74
2023/04/14 01:24:36;;;;;;;8.70;6.10;;;5.70;99.90;;;5.15;73.73;100337.28;5096237;28;20192;-74
2023/04/14 01:27:32;;;;;;;7.87;6.60;;;5.80;99.90;;;5.15;74.33;100339.94;5096138;28;20221;-74
2023/04/14 01:30:21;;;;;;;9.27;6.37;;;5.80;99.90;;;5.04;73.57;100350.66;5096282;28;20196;-74
2023/04/14 01:33:01;;;;;;;8.27;6.50;;;5.70;99.90;;;4.89;74.82;100354.66;5096186;28;20200;-74
2023/04/14 01:35:44;;;;;;;9.97;7.40;;;5.50;99.90;;;4.95;74.27;100347.00;5096194;28;20238;-74
2023/04/14 01:38:23;;;;;;;8.40;7.30;;;5.90;99.90;;;4.88;74.39;100352.97;5096043;28;20221;-74
2023/04/14 01:41:01;;;;;;;9.40;6.57;;;5.50;99.90;;;4.76;74.93;100356.72;5095990;28;20221;-74
2023/04/14 01:43:37;;;;;;;11.03;7.30;;;5.40;99.90;;;4.69;75.62;100359.06;5095763;28;20196;-74
2023/04/14 01:46:14;;;;;;;9.67;6.70;;;5.30;99.90;;;4.64;76.14;100363.91;5095960;28;20193;-74
2023/04/14 01:48:49;;;;;;;7.17;6.47;;;5.30;99.90;;;4.68;75.65;100361.81;5095881;28;20239;-74
2023/04/14 01:51:23;;;;;;;9.27;7.30;;;5.30;99.90;;;4.57;76.31;100357.44;5095536;28;20553;-74
2023/04/14 01:53:57;;;;;;;9.13;6.93;;;5.20;99.90;;;4.59;76.16;100361.63;5095851;28;20192;-74
2023/04/14 01:56:30;;;;;;;9.70;6.93;;;5.30;99.90;;;4.69;74.96;100360.84;5095728;28;20193;-74
2023/04/14 01:59:04;;;;;;;10.07;6.83;;;5.40;99.90;;;4.62;74.33;100357.91;5095430;28;20224;-74
2023/04/14 02:01:40;;;;;;;9.80;7.03;;;5.40;99.90;;;4.50;76.04;100365.06;5095569;28;20200;-74
2023/04/14 02:04:15;;;;;;;8.53;6.90;;;5.20;99.90;;;4.42;75.82;100362.22;5096428;28;20211;-74
2023/04/14 02:06:48;;;;;;;11.67;7.50;;;5.10;99.90;;;4.40;76.03;100371.28;5095131;28;20648;-74
2023/04/14 02:09:21;;;;;;;8.67;7.17;;;5.00;99.90;;;4.35;76.10;100374.31;5095517;28;20196;-74
2023/04/14 02:11:55;;;;;;;9.90;7.50;;;5.00;99.90;;;4.29;76.62;100374.84;5095468;28;20193;-74
2023/04/14 02:14:28;;;;;;;9.07;7.40;;;4.90;99.90;;;4.29;76.24;100380.13;5095104;28;20633;-74
2023/04/14 02:17:02;;;;;;;11.63;6.97;;;5.00;99.90;;;4.36;76.37;100386.59;5095320;28;20225;-74
2023/04/14 02:19:37;;;;;;;10.37;6.70;;;5.00;99.90;;;4.38;76.10;100395.28;5095366;28;20275;-74
2023/04/14 02:22:12;;;;;;;11.60;8.13;;;5.00;99.90;;;4.46;76.06;100394.63;5094987;28;20208;-74
2023/04/14 02:24:43;;;;;;;12.57;8.40;;;5.20;99.90;;;4.49;77.72;100381.94;5094527;28;20196;-75
2023/04/14 02:27:25;;;;;;;11.93;7.57;;;5.20;99.90;;;4.31;76.84;100391.47;5094818;28;20633;-75
2023/04/14 02:29:59;;;;;;;10.10;7.93;;;5.10;99.90;;;4.26;76.39;100396.31;5094578;28;20197;-75
2023/04/14 02:32:35;;;;;;;14.67;9.13;;;4.90;99.90;;;4.19;77.30;100389.81;5094659;28;20204;-74
2023/04/14 02:35:15;;;;;;;12.27;8.33;;;4.90;99.90;;;4.12;78.06;100383.34;5094665;28;20189;-75
2023/04/14 02:37:53;;;;;;;11.60;7.40;;;4.80;99.90;;;4.20;76.95;100385.38;5094747;28;20704;-75
2023/04/14 02:40:30;;;;;;;8.50;6.70;;;4.90;99.90;;;4.22;76.05;100386.91;5094674;28;20189;-76
2023/04/14 02:43:11;;;;;;;8.30;7.07;;;4.90;99.90;;;4.36;76.07;100388.41;5094262;28;20208;-77
2023/04/14 02:45:47;;;;;;;11.13;6.67;;;5.10;99.90;;;4.32;75.69;100382.53;5094944;28;20185;-77
2023/04/14 02:48:23;;;;;;;12.03;7.60;;;5.10;99.90;;;4.31;76.13;100378.22;5094504;28;20735;-77
2023/04/14 02:50:59;;;;;;;10.17;7.70;;;5.00;99.90;;;4.15;76.19;100379.59;5094793;28;20284;-77
2023/04/14 02:53:33;;;;;;;13.30;7.77;;;4.80;99.90;;;4.10;76.86;100390.59;5094783;28;20195;-77
2023/04/14 02:56:05;;;;;;;9.33;7.07;;;4.70;99.90;;;4.06;77.57;100394.47;5094714;28;20189;-77
2023/04/14 02:58:37;;;;;;;10.67;7.03;;;4.70;99.90;;;4.07;76.54;100396.97;5094315;28;20243;-77
2023/04/14 03:01:10;;;;;;;9.70;7.57;;;4.80;99.90;;;4.07;76.93;100396.16;5094241;28;20197;-77
2023/04/14 03:03:43;;;;;;;10.87;7.80;;;4.80;99.90;;;4.02;79.51;100399.19;5094241;28;20189;-77
2023/04/14 03:06:18;;;;;;;10.30;8.13;;;4.70;99.90;;;4.07;79.68;100401.47;5094504;28;20196;-77
2023/04/14 03:08:54;;;;;;;9.80;8.07;;;4.80;99.90;;;4.08;80.18;100392.53;5094396;28;20249;-77
2023/04/14 03:11:27;;;;;;;10.07;8.50;;;4.80;99.90;;;4.05;80.33;100387.47;5094456;28;20215;-77
2023/04/14 03:14:02;;;;;;;9.70;8.10;;;4.80;99.90;;;4.09;80.31;100384.47;5094366;28;20199;-77
2023/04/14 03:16:38;;;;;;;10.40;8.03;;;4.90;99.90;;;4.02;78.86;100390.38;5093976;28;20633;-77
2023/04/14 03:19:12;;;;;;;9.53;8.27;;;4.80;99.90;;;3.98;79.86;100387.16;5094307;28;20188;-77
2023/04/14 03:21:48;;;;;;;9.63;8.40;;;4.70;99.90;;;4.04;78.88;100394.59;5094201;28;20246;-77
2023/04/14 03:24:23;;;;;;;9.80;7.83;;;4.80;99.90;;;4.04;77.41;100391.13;5094238;28;20271;-77
2023/04/14 03:27:00;;;;;;;8.60;7.50;;;4.80;99.90;;;3.96;79.29;100389.09;5094112;28;20235;-77
2023/04/14 03:29:37;;;;;;;9.40;8.03;;;4.70;99.90;;;3.91;78.16;100390.44;5094116;28;20192;-77
2023/04/14 03:32:11;;;;;;;9.67;8.00;;;4.60;99.90;;;3.92;78.29;100390.31;5093614;28;20203;-77
2023/04/14 03:34:48;;;;;;;9.43;8.20;;;4.60;99.90;;;3.93;78.11;100388.50;5094046;28;20200;-77
2023/04/14 03:37:27;;;;;;;9.90;7.37;;;4.70;99.90;;;3.94;78.10;100391.03;5093950;28;20365;-77
2023/04/14 03:40:04;;;;;;;11.63;7.67;;;4.60;99.90;;;3.85;77.37;100386.50;5093959;28;20199;-77
2023/04/14 03:42:38;;;;;;;11.40;8.17;;;4.60;99.90;;;3.84;77.07;100390.09;5093839;28;20205;-77
2023/04/14 03:45:10;;;;;;;12.83;8.77;;;4.60;99.90;;;3.79;79.02;100394.94;5093557;28;20554;-77
2023/04/14 03:47:42;;;;;;;12.30;8.97;;;4.50;99.90;;;3.83;78.16;100393.72;5093786;28;20229;-77
2023/04/14 03:50:17;;;;;;;11.53;8.63;;;4.60;99.90;;;3.75;77.96;100400.59;5093869;28;20189;-77
2023/04/14 03:52:53;;;;;;;12.37;8.57;;;4.50;99.90;;;3.84;77.51;100383.97;5093452;28;20191;-77
2023/04/14 03:55:30;;;;;;;12.83;8.27;;;4.60;99.90;;;3.90;77.20;100389.63;5093807;28;20288;-77
2023/04/14 03:58:07;;;;;;;10.20;7.70;;;4.70;99.90;;;3.89;77.44;100387.09;5093168;28;20224;-76
2023/04/14 04:00:40;;;;;;;9.83;8.10;;;4.60;99.90;;;3.86;77.04;100387.34;5093692;28;20565;-76
2023/04/14 04:03:13;;;;;;;9.03;7.73;;;4.50;99.90;;;3.77;77.05;100388.91;5093600;28;20213;-76
2023/04/14 04:05:48;;;;;;;12.13;8.40;;;4.60;99.90;;;3.75;79.71;100388.22;5093668;28;20246;-76
2023/04/14 04:08:22;;;;;;;10.07;8.17;;;4.50;99.90;;;3.79;79.52;100392.28;5093579;28;20224;-76
2023/04/14 04:10:56;;;;;;;9.53;8.37;;;4.50;99.90;;;3.74;79.92;100385.69;5093654;28;20188;-76
2023/04/14 04:13:30;;;;;;;10.53;8.77;;;4.50;99.90;;;3.71;80.15;100391.22;5093308;28;20696;-76
2023/04/14 04:16:04;;;;;;;10.13;8.17;;;4.50;99.90;;;3.72;80.04;100400.84;5093274;28;20637;-76
2023/04/14 04:18:38;;;;;;;12.10;8.93;;;4.50;99.90;;;3.70;79.79;100400.16;5093778;28;20236;-76
2023/04/14 04:21:14;;;;;;;9.83;8.13;;;4.50;99.90;;;3.65;79.50;100397.88;5093514;28;20197;-76
2023/04/14 04:23:54;;;;;;;10.40;8.10;;;4.40;99.90;;;3.67;80.57;100397.72;5093451;28;20209;-76
2023/04/14 04:26:26;;;;;;;10.97;7.63;;;4.40;99.90;;;3.65;80.03;100405.81;5093484;28;20188;-76
2023/04/14 04:29:00;;;;;;;12.73;8.23;;;4.40;99.90;;;3.64;79.87;100411.22;5093455;28;20193;-76
2023/04/14 04:31:33;;;;;;;12.17;8.10;;;4.40;99.90;;;3.58;80.04;100405.47;5093476;28;20275;-76
2023/04/14 04:34:05;;;;;;;10.83;8.00;;;4.40;99.90;;;3.55;80.36;100410.16;5093433;28;20224;-76
2023/04/14 04:36:39;;;;;;;9.73;8.13;;;4.40;99.90;;;3.63;80.15;100420.16;5093298;28;20193;-76
2023/04/14 04:39:12;;;;;;;10.33;7.87;;;4.40;99.90;;;3.57;81.41;100414.38;5093348;28;20185;-76
2023/04/14 04:41:45;;;;;;;10.50;7.60;;;4.40;99.90;;;3.69;80.40;100411.69;5093301;28;20238;-76
2023/04/14 04:44:16;;;;;;;10.03;8.30;;;4.50;99.90;;;3.66;81.11;100401.38;5094436;28;20189;-76
2023/04/14 04:46:52;;;;;;;12.97;9.77;;;4.50;99.90;;;3.65;80.74;100407.63;5097136;28;20229;-76
2023/04/14 04:49:25;;;;;;;11.03;8.53;;;4.50;99.90;;;3.68;80.15;100416.16;5097295;28;20185;-77
2023/04/14 04:51:58;;;;;;;11.47;8.43;;;4.50;99.90;;;3.72;79.45;100416.75;5097118;28;20190;-76
2023/04/14 04:54:31;;;;;;;10.83;8.67;;;4.50;99.90;;;3.68;79.65;100420.59;5097087;28;20228;-76
2023/04/14 04:57:03;;;;;;;14.33;9.73;;;4.50;99.90;;;3.59;81.55;100424.84;5096935;28;20236;-76
2023/04/14 04:59:34;;;;;;;13.83;9.30;;;4.40;99.90;;;3.53;81.42;100422.66;5096623;28;20269;-76
2023/04/14 05:02:08;;;;;;;9.97;8.57;;;4.30;99.90;;;3.53;81.09;100427.97;5096512;28;20204;-76
2023/04/14 05:04:40;;;;;;;12.03;9.00;;;4.30;99.90;;;3.55;81.17;100431.34;5096821;28;20220;-76
2023/04/14 05:07:12;;;;;;;10.40;8.57;;;4.40;99.90;;;3.63;81.04;100428.09;5096701;28;20316;-76
2023/04/14 05:09:45;;;;;;;11.53;8.67;;;4.40;99.90;;;3.58;81.39;100420.50;5096503;28;20559;-76
2023/04/14 05:12:17;;;;;;;14.70;9.10;;;4.40;99.90;;;3.56;81.74;100430.38;5096732;28;20203;-76
2023/04/14 05:14:49;;;;;;;13.37;9.17;;;4.30;99.90;;;3.55;81.74;100437.50;5096359;28;20197;-76
2023/04/14 05:17:21;;;;;;;11.57;8.57;;;4.40;99.90;;;3.57;80.95;100437.34;5096560;28;20224;-76
2023/04/14 05:19:53;;;;;;;11.30;8.67;;;4.40;99.90;;;3.45;81.85;100425.97;5096292;28;20189;-76
2023/04/14 05:22:25;;;;;;;11.73;9.07;;;4.30;99.90;;;3.46;82.64;100442.66;5096485;28;20213;-76
2023/04/14 05:24:58;;;;;;;12.47;9.17;;;4.30;99.90;;;3.42;82.30;100441.22;5096435;28;20549;-76
2023/04/14 05:27:30;;;;;;;12.93;9.20;;;4.20;99.90;;;3.45;82.88;100439.19;5096358;28;20278;-76
2023/04/14 05:30:02;;;;;;;12.30;9.20;;;4.20;99.90;;;3.46;83.00;100443.50;5096387;28;20194;-76
2023/04/14 05:32:34;;;;;;;15.83;9.60;;;4.30;99.90;;;3.47;82.67;100437.25;5096020;28;20630;-76
2023/04/14 05:35:07;;;;;;;12.77;9.27;;;4.30;99.90;;;3.43;82.41;100427.88;5096293;28;20197;-76
2023/04/14 05:37:38;;;;;;;11.43;8.83;;;4.30;99.90;;;3.46;82.46;100437.34;5096170;28;20225;-76
2023/04/14 05:40:14;;;;;;;12.27;9.17;;;4.30;99.90;;;3.52;82.66;100431.59;5096669;28;20197;-76
2023/04/14 05:42:45;;;;;;;14.73;9.40;;;4.30;99.90;;;3.55;82.62;100441.94;5095757;28;20204;-76
2023/04/14 05:45:17;;;;;;;13.63;10.07;;;4.40;99.90;;;3.56;82.55;100433.84;5096091;28;20197;-76
2023/04/14 05:47:49;;;;;;;16.57;10.90;;;4.40;99.90;;;3.56;82.10;100435.69;5095962;28;20236;-76
2023/04/14 05:50:21;;;;;;;19.17;11.90;;;4.40;99.90;;;3.47;84.01;100436.41;5096001;28;20293;-76
2023/04/14 05:52:53;;;;;;;17.10;11.90;;;4.30;99.90;;;3.40;84.60;100437.84;5095953;28;20237;-76
2023/04/14 05:55:27;;;;;;;18.50;11.67;;;4.20;99.90;;;3.36;85.33;100437.25;5095540;28;20310;-76
2023/04/14 05:57:59;;;;;;;16.67;12.67;;;4.20;99.90;;;3.35;85.85;100440.88;5095667;28;20235;-76
2023/04/14 06:00:31;;;;;;;18.27;12.30;;;4.20;99.90;;;3.33;85.66;100432.22;5095572;28;20645;-76
2023/04/14 06:03:03;;;;;;;19.43;12.33;;;4.20;99.90;;;3.37;85.78;100433.66;5095657;28;20220;-76
2023/04/14 06:05:35;;;;;;;17.80;13.17;;;4.30;99.90;;;3.40;86.21;100433.41;5095740;28;20238;-76
2023/04/14 06:08:07;;;;;;;20.80;13.10;;;4.30;99.90;;;3.46;85.71;100438.19;5095618;28;20240;-76
2023/04/14 06:10:40;;;;;;;15.00;12.57;;;4.30;99.90;;;3.53;86.05;100431.47;5095308;28;20660;-76
2023/04/14 06:13:12;;;;;;;15.63;12.33;;;4.40;99.90;;;3.61;85.93;100427.34;5095245;28;20668;-76
2023/04/14 06:15:44;;;;;;;15.90;12.90;;;4.50;99.90;;;3.66;86.66;100427.84;5095205;28;20193;-76
2023/04/14 06:18:16;;;;;;;19.43;13.67;;;4.60;99.90;;;3.66;88.12;100415.44;5095402;28;20224;-76
2023/04/14 06:20:48;;;;;;;18.57;14.20;;;4.60;99.90;;;3.71;87.78;100421.19;5095405;28;20185;-76
2023/04/14 06:23:20;;;;;;;16.97;13.50;;;4.60;99.90;;;3.76;87.89;100423.47;5095342;28;20209;-76
2023/04/14 06:25:56;;;;;;;20.97;14.00;;;4.60;99.90;;;3.82;88.47;100422.97;5095010;28;20204;-76
2023/04/14 06:28:28;;;;;;;19.20;14.10;;;4.70;99.90;;;3.90;88.44;100423.19;5094899;28;20221;-76
2023/04/14 06:31:00;;;;;;;17.20;12.30;;;4.80;99.90;;;3.92;88.48;100422.09;5094929;28;20669;-76
2023/04/14 06:33:32;;;;;;;15.83;11.87;;;4.80;99.90;;;3.97;87.89;100421.72;5095170;28;20181;-76
2023/04/14 06:36:04;;;;;;;16.03;11.50;;;4.90;99.90;;;4.02;88.31;100419.53;5094785;28;20190;-76
2023/04/14 06:38:35;;;;;;;19.97;14.50;;;4.90;99.90;;;4.17;89.35;100422.72;5095023;28;20257;-77
2023/04/14 06:41:09;;;;;;;23.77;15.13;;;5.00;99.90;;;4.25;88.79;100422.91;5094740;28;20690;-77
2023/04/14 06:43:42;;;;;;;19.73;14.07;;;5.10;99.90;;;4.31;89.10;100423.28;5094962;28;20209;-77
2023/04/14 06:46:14;;;;;;;22.10;14.10;;;5.20;99.90;;;4.38;88.90;100426.25;5094930;28;20189;-77
2023/04/14 06:48:46;;;;;;;20.27;14.37;;;5.30;99.90;;;4.42;88.87;100422.34;5094844;28;20312;-77
2023/04/14 06:51:18;;;;;;;20.23;14.53;;;5.30;99.90;;;4.51;88.83;100425.09;5094503;28;20200;-77
2023/04/14 06:53:50;;;;;;;18.07;14.13;;;5.40;99.90;;;4.55;88.52;100423.84;5094795;28;20208;-77
2023/04/14 06:56:24;;;;;;;20.27;14.83;;;5.40;99.90;;;4.58;88.78;100423.59;5094753;28;20193;-77
2023/04/14 06:58:55;;;;;;;22.50;15.10;;;5.50;99.90;;;4.66;88.90;100419.47;5094393;28;20208;-77
2023/04/14 07:01:27;;;;;;;16.93;14.53;;;5.50;99.90;;;4.77;89.46;100422.00;5094642;28;20207;-77
2023/04/14 07:03:59;;;;;;;22.03;15.10;;;5.60;99.90;;;4.80;88.67;100421.75;5094237;28;20208;-77
2023/04/14 07:06:31;;;;;;;22.70;15.97;;;5.70;99.90;;;4.87;89.13;100418.44;5094363;28;20238;-77
2023/04/14 07:09:03;;;;;;;20.80;15.67;;;5.70;99.90;;;5.00;89.52;100418.25;5094511;28;20200;-77
2023/04/14 07:11:37;;;;;;;23.70;15.83;;;5.90;99.90;;;5.01;90.27;100420.75;5094147;28;20605;-66
2023/04/14 07:14:09;;;;;;;17.23;13.70;;;5.90;99.90;;;5.07;90.89;100422.03;5094391;28;20189;-72
2023/04/14 07:16:41;;;;;;;18.37;11.67;;;6.00;99.90;;;5.09;90.67;100415.63;5093999;28;20668;-73
2023/04/14 07:19:12;;;;;;;16.07;11.47;;;6.00;99.90;;;5.22;91.17;100427.81;5094352;28;20223;-73
2023/04/14 07:21:46;;;;;;;14.43;10.50;;;6.10;99.90;;;5.25;89.92;100427.56;5094262;28;20193;-73
2023/04/14 07:24:18;;;;;;;12.13;9.27;;;6.10;99.90;;;5.36;89.16;100424.81;5094198;28;20213;-73
2023/04/14 07:26:52;;;;;;;14.57;10.00;;;6.30;99.90;;;5.36;88.93;100424.81;5094110;28;20619;-73
2023/04/14 07:29:26;;;;;;;14.13;9.03;;;6.30;99.90;;;5.41;89.91;100428.72;5093823;28;20564;-73
2023/04/14 07:31:58;;;;;;;11.17;8.27;;;6.30;99.90;;;5.45;89.76;100424.81;5094145;28;20193;-73
2023/04/14 07:34:32;;;;;;;11.67;8.43;;;6.40;99.90;;;5.51;89.47;100424.28;5093797;28;20189;-73
2023/04/14 07:37:05;;;;;;;9.43;7.70;;;6.40;99.90;;;5.55;88.76;100415.06;5093672;28;20220;-73
2023/04/14 07:39:37;;;;;;;11.67;7.97;;;6.40;99.90;;;5.59;88.92;100429.75;5093701;28;20592;-73
2023/04/14 07:42:11;;;;;;;12.10;7.27;;;6.50;99.90;;;5.66;88.64;100432.72;5093704;28;20192;-73
2023/04/14 07:44:42;;;;;;;10.80;7.70;;;6.60;99.90;;;5.80;87.30;100434.13;5093837;28;20212;-73
2023/04/14 07:47:14;;;;;;;11.67;8.23;;;6.70;99.90;;;5.85;87.28;100431.91;5093843;28;20225;-73
2023/04/14 07:49:46;;;;;;;10.37;6.90;;;6.70;99.90;;;5.90;87.20;100438.53;5093904;28;20185;-73
2023/04/14 07:52:18;;;;;;;9.93;7.90;;;6.70;99.90;;;5.95;87.64;100432.81;5093847;28;20185;-73
2023/04/14 07:54:49;;;;;;;8.93;7.20;;;6.80;99.90;;;6.01;86.85;100438.41;5093855;28;20189;-73
2023/04/14 07:57:23;;;;;;;10.47;7.23;;;6.90;99.90;;;6.09;86.36;100440.38;5093758;28;20221;-73
2023/04/14 07:59:54;;;;;;;14.37;7.87;;;7.00;99.90;;;6.09;86.39;100432.41;5093348;28;20219;-73
2023/04/14 08:02:26;;;;;;;10.73;7.73;;;7.00;99.90;;;6.18;86.58;100439.53;5093421;28;20214;-73
2023/04/14 08:04:58;;;;;;;12.30;8.27;;;7.00;99.90;;;6.24;86.93;100438.97;5093340;28;20639;-73
2023/04/14 08:07:31;;;;;;;10.83;7.80;;;7.10;99.90;;;6.29;86.51;100442.06;5094048;28;20274;-73
2023/04/14 08:10:03;;;;;;;10.57;8.10;;;7.20;99.90;;;6.34;86.33;100437.13;5093706;28;20193;-73
2023/04/14 08:12:36;;;;;;;11.10;8.10;;;7.30;99.90;;;6.41;86.32;100435.59;5093603;28;20193;-73
2023/04/14 08:15:10;;;;;;;12.90;8.73;;;7.30;99.90;;;6.48;86.24;100439.38;5093618;28;20186;-73
2023/04/14 08:17:42;;;;;;;11.97;8.50;;;7.40;99.90;;;6.58;86.56;100434.88;5093359;28;20229;-73
2023/04/14 08:20:15;;;;;;;10.83;8.23;;;7.50;99.90;;;6.63;86.22;100429.16;5097470;28;20636;-73
2023/04/14 08:22:46;;;;;;;13.77;8.60;;;7.50;99.90;;;6.71;86.42;100426.63;5097500;28;20637;-73
2023/04/14 08:25:18;;;;;;;11.00;7.80;;;7.60;99.90;;;6.81;85.43;100422.13;5097373;28;20209;-73
2023/04/14 08:27:51;;;;;;;13.37;8.67;;;7.70;99.90;;;7.06;84.67;100425.94;5097539;28;20231;-74
2023/04/14 08:30:23;;;;;;;13.10;7.97;;;7.90;99.90;;;7.17;84.72;100425.75;5097577;28;20196;-74
2023/04/14 08:32:55;;;;;;;9.33;7.40;;;8.00;99.90;;;7.18;84.22;100426.59;5098358;28;20197;-74
2023/04/14 08:35:29;;;;;;;10.17;7.53;;;8.00;99.90;;;7.26;84.30;100418.75;5097496;28;20219;-74
2023/04/14 08:38:12;;;;;;;8.97;6.30;;;8.10;99.90;;;7.37;83.40;100415.88;5097328;28;20229;-74
2023/04/14 08:40:47;;;;;;;11.80;6.50;;;8.20;99.90;;;7.60;82.26;100423.31;5097135;28;20201;-74
2023/04/14 08:43:21;;;;;;;7.37;5.23;;;8.40;99.90;;;7.58;82.67;100425.28;5097385;28;20185;-74
2023/04/14 08:45:55;;;;;;;5.73;4.57;;;8.50;99.90;;;7.73;81.77;100430.13;5096903;28;20580;-74
2023/04/14 08:48:35;;;;;;;7.27;4.50;;;8.60;99.90;;;7.88;80.04;100433.94;5097197;28;20256;-74
2023/04/14 08:51:13;;;;;;;7.50;4.73;;;8.70;99.90;;;8.13;79.47;100428.72;5097160;28;20193;-74
2023/04/14 08:53:48;;;;;;;8.70;5.33;;;9.00;99.90;;;8.14;80.35;100434.88;5097129;28;20207;-74
2023/04/14 08:56:24;;;;;;;6.20;4.90;;;9.00;99.90;;;8.31;78.44;100438.56;5097093;28;20200;-74
2023/04/14 08:58:57;;;;;;;11.60;4.57;;;9.10;99.90;;;8.33;78.49;100429.41;5096752;28;20212;-74
2023/04/14 09:01:30;;;;;;;6.87;4.23;;;9.10;99.90;;;8.38;78.94;100432.47;5096996;28;20189;-74
2023/04/14 09:04:05;;;;;;;6.57;4.30;;;9.20;99.90;;;8.47;78.43;100442.22;5096839;28;20196;-74
2023/04/14 09:06:39;;;;;;;8.07;4.60;;;9.30;99.90;;;8.72;75.70;100439.75;5096775;28;20505;-74
2023/04/14 09:09:11;;;;;;;5.33;4.30;;;9.50;99.90;;;8.78;76.63;100433.78;5096841;28;20185;-74
2023/04/14 09:11:44;;;;;;;10.03;4.30;;;9.50;99.90;;;8.78;76.65;100444.44;5096440;28;20194;-74
2023/04/14 09:14:20;;;;;;;9.17;4.47;;;9.60;99.90;;;8.94;75.26;100444.56;5096753;28;20195;-74
2023/04/14 09:16:53;;;;;;;5.57;4.33;;;9.70;99.90;;;9.00;75.82;100433.28;5096576;28;20235;-74
2023/04/14 09:19:26;;;;;;;6.70;4.50;;;9.80;99.90;;;9.03;74.96;100433.78;5096362;28;20189;-74
2023/04/14 09:21:59;;;;;;;7.30;4.60;;;9.90;99.90;;;9.18;75.10;100436.69;5096494;28;20604;-74
2023/04/14 09:24:33;;;;;;;8.27;4.40;;;10.00;99.90;;;9.27;73.03;100430.41;5096417;28;20212;-74
2023/04/14 09:27:07;;;;;;;10.17;4.80;;;10.00;99.70;;;9.27;74.50;100430.41;5096870;28;20255;-74
2023/04/14 09:29:41;;;;;;;5.50;4.33;;;10.10;99.90;;;9.38;71.66;100430.16;5095322;28;20189;-74
2023/04/14 09:32:13;;;;;;;8.77;4.90;;;10.20;98.80;;;9.50;72.53;100417.31;5096391;28;20197;-74
2023/04/14 09:34:53;;;;;;;5.60;4.03;;;10.30;99.50;;;9.56;73.45;100414.84;5096347;28;20185;-74
2023/04/14 09:37:41;;;;;;;7.43;4.23;;;10.40;99.40;;;9.66;71.38;100415.53;5096245;28;20654;-74
2023/04/14 09:40:27;;;;;;;6.03;4.50;;;10.40;99.30;;;9.81;72.48;100409.56;5095924;28;20529;-74
2023/04/14 09:43:01;;;;;;;6.43;4.63;;;10.60;99.30;;;9.90;70.44;100405.91;5096119;28;20212;-74
2023/04/14 09:45:47;;;;;;;5.67;4.60;;;10.70;98.70;;;10.17;68.27;100392.28;5096097;28;20209;-74
2023/04/14 09:48:19;;;;;;;6.80;4.33;;;10.90;97.50;;;10.15;69.05;100397.78;5094579;28;20670;-74
2023/04/14 09:51:08;;;;;;;5.77;4.00;;;11.00;97.60;;;10.19;68.34;100403.66;5096072;28;20197;-74
2023/04/14 09:53:44;;;;;;;4.07;3.57;;;10.90;97.10;;;10.29;69.73;100401.66;5096007;28;20189;-74
2023/04/14 09:56:31;;;;;;;6.50;3.97;;;11.10;98.00;;;10.45;67.46;100393.63;5095897;28;20182;-74
2023/04/14 09:59:04;;;;;;;5.73;4.10;;;11.20;96.70;;;10.50;67.59;100393.97;5095545;28;20220;-74
2023/04/14 10:01:37;;;;;;;7.47;4.03;;;11.30;96.70;;;10.66;67.63;100393.94;5095794;28;20197;-74
2023/04/14 10:04:22;;;;;;;5.80;4.30;;;11.50;96.90;;;10.82;66.51;100392.25;5095558;28;20220;-74
2023/04/14 10:07:00;;;;;;;6.23;4.37;;;11.50;96.20;;;10.95;63.74;100392.56;5095601;28;20311;-74
2023/04/14 10:09:37;;;;;;;6.27;4.33;;;11.60;95.60;;;11.08;64.34;100387.50;5095702;28;20193;-74
2023/04/14 10:12:12;;;;;;;5.30;3.57;;;11.80;95.50;;;11.16;62.43;100382.13;5095576;28;20231;-74
2023/04/14 10:14:46;;;;;;;4.33;3.00;;;11.90;94.30;;;11.19;64.58;100379.09;5095554;28;20250;-74
2023/04/14 10:17:20;;;;;;;6.07;3.27;;;11.90;95.30;;;11.36;60.63;100380.69;5095400;28;20224;-74
2023/04/14 10:19:53;;;;;;;7.20;3.67;;;12.10;93.60;;;11.40;62.48;100382.03;5095129;28;20195;-74
2023/04/14 10:22:28;;;;;;;5.13;3.80;;;12.10;94.00;;;11.47;61.07;100376.81;5095409;28;20243;-74
2023/04/14 10:25:01;;;;;;;6.20;3.50;;;12.10;94.10;;;11.56;63.24;100376.59;5095309;28;20304;-74
2023/04/14 10:27:36;;;;;;;4.40;3.30;;;12.30;94.70;;;11.71;61.20;100383.91;5094839;28;20301;-74
2023/04/14 10:30:11;;;;;;;4.43;3.73;;;12.40;94.30;;;11.73;60.10;100372.00;5094943;28;20633;-74
2023/04/14 10:32:47;;;;;;;4.80;3.70;;;12.40;92.80;;;11.82;60.08;100370.09;5095143;28;20196;-74
2023/04/14 10:35:21;;;;;;;6.73;4.57;;;12.50;93.10;;;11.87;61.09;100376.59;5094805;28;20661;-74
2023/04/14 10:37:56;;;;;;;5.27;4.73;;;12.50;93.80;;;11.95;58.64;100373.03;5094710;28;20232;-74
2023/04/14 10:40:27;;;;;;;5.37;4.50;;;12.60;92.70;;;12.04;60.61;100367.44;5095012;28;20192;-74
2023/04/14 10:43:00;;;;;;;5.30;4.30;;;12.70;93.30;;;12.12;60.44;100361.19;5093963;28;20189;-74
2023/04/14 10:45:32;;;;;;;5.47;4.97;;;12.80;93.20;;;12.10;59.44;100365.88;5094909;28;20231;-74
2023/04/14 10:48:10;;;;;;;6.40;5.47;;;12.80;92.20;;;12.06;60.15;100368.06;5094816;28;20229;-74
2023/04/14 10:50:54;;;;;;;6.53;5.50;;;12.70;92.70;;;12.03;59.33;100362.22;5094857;28;20185;-74